Time;durP1;ratioP1;P1;durP2;ratioP2;P2;SDS_P1;SDS_P2;PMS_P1;PMS_P2;Temp;Humidity;BMP_temperature;BMP_pressure;BME280_temperature;BME280_humidity;BME280_pressure;Samples;Min_cycle;Max_cycle;Signal;HPM_P1;HPM_P2
2023/12/06 00:02:06;;;;;;;21.50;9.13;;;;;;;0.37;100.00;100482.25;6246119;23;20187;-67
2023/12/06 00:04:35;;;;;;;20.50;8.52;;;;;;;0.26;100.00;100485.94;6245999;23;20210;-65
2023/12/06 00:07:04;;;;;;;17.63;8.93;;;;;;;0.33;100.00;100479.06;6219632;23;20168;-65
2023/12/06 00:09:34;;;;;;;8.68;7.00;;;;;;;0.35;100.00;100484.22;6246501;23;20172;-64
2023/12/06 00:12:03;;;;;;;12.75;8.40;;;;;;;0.47;100.00;100484.88;6245610;23;20231;-64
2023/12/06 00:14:32;;;;;;;24.60;11.20;;;;;;;0.44;100.00;100478.84;6218946;23;20192;-65
2023/12/06 00:17:00;;;;;;;21.92;15.35;;;;;;;0.46;100.00;100477.88;6246043;23;20262;-65
2023/12/06 00:19:29;;;;;;;19.80;10.80;;;;;;;0.46;100.00;100475.22;6246403;23;20617;-66
2023/12/06 00:21:58;;;;;;;13.25;6.53;;;;;;;0.46;100.00;100475.22;6246228;23;20402;-63
2023/12/06 00:24:27;;;;;;;14.13;9.20;;;;;;;0.51;100.00;100478.25;6246645;23;20271;-64
2023/12/06 00:26:57;;;;;;;12.25;6.03;;;;;;;0.59;100.00;100475.69;6254206;23;20182;-65
2023/12/06 00:29:26;;;;;;;28.42;11.52;;;;;;;0.54;100.00;100472.63;6251421;23;20651;-65
2023/12/06 00:31:54;;;;;;;10.43;8.25;;;;;;;0.49;100.00;100473.06;6249766;23;20160;-65
2023/12/06 00:34:23;;;;;;;15.50;9.00;;;;;;;0.51;100.00;100472.94;6248121;23;20179;-66
2023/12/06 00:36:52;;;;;;;17.00;8.43;;;;;;;0.55;100.00;100464.50;6246838;23;20172;-65
2023/12/06 00:39:21;;;;;;;22.15;11.40;;;;;;;0.62;100.00;100459.44;6248063;23;20160;-64
2023/12/06 00:41:51;;;;;;;14.65;7.32;;;;;;;0.54;100.00;100468.16;6247002;23;20171;-66
2023/12/06 00:44:21;;;;;;;23.23;11.55;;;;;;;0.49;100.00;100469.56;6248601;23;20212;-63
2023/12/06 00:46:50;;;;;;;10.43;7.63;;;;;;;0.54;100.00;100467.31;6249436;23;20155;-64
2023/12/06 00:49:19;;;;;;;12.23;8.48;;;;;;;0.46;100.00;100464.56;6249480;23;20243;-64
2023/12/06 00:51:47;;;;;;;11.00;6.40;;;;;;;0.48;100.00;100467.91;6247182;23;20152;-65
2023/12/06 00:54:16;;;;;;;13.75;6.90;;;;;;;0.54;100.00;100473.47;6245737;23;20184;-65
2023/12/06 00:56:45;;;;;;;15.55;7.50;;;;;;;0.54;100.00;100475.28;6245540;23;20230;-64
2023/12/06 00:59:13;;;;;;;15.07;10.40;;;;;;;0.61;100.00;100481.72;6245871;23;20574;-62
2023/12/06 01:01:43;;;;;;;19.02;6.50;;;;;;;0.59;100.00;100481.00;6245738;23;20195;-62
2023/12/06 01:04:12;;;;;;;19.42;6.60;;;;;;;0.65;100.00;100480.44;6245253;23;20180;-65
2023/12/06 01:06:41;;;;;;;9.88;6.90;;;;;;;0.55;100.00;100484.97;6245628;23;20410;-64
2023/12/06 01:09:10;;;;;;;18.55;9.07;;;;;;;0.54;100.00;100483.28;6245603;23;20547;-64
2023/12/06 01:11:39;;;;;;;11.27;6.95;;;;;;;0.51;100.00;100488.91;6218778;23;20650;-65
2023/12/06 01:14:08;;;;;;;16.50;8.82;;;;;;;0.61;100.00;100487.03;6245158;23;20643;-61
2023/12/06 01:16:37;;;;;;;12.82;7.70;;;;;;;0.55;100.00;100490.28;6245113;23;20183;-65
2023/12/06 01:19:07;;;;;;;19.90;8.30;;;;;;;0.53;100.00;100486.97;6245466;23;20222;-65
2023/12/06 01:21:36;;;;;;;28.05;6.63;;;;;;;0.54;100.00;100485.94;6245696;23;20152;-65
2023/12/06 01:24:05;;;;;;;10.88;9.63;;;;;;;0.60;100.00;100490.69;6247355;23;20270;-64
2023/12/06 01:26:34;;;;;;;17.23;7.30;;;;;;;0.63;100.00;100493.06;6247498;23;20210;-64
2023/12/06 01:29:04;;;;;;;13.63;8.75;;;;;;;0.57;100.00;100491.00;6247590;23;20171;-63
2023/12/06 01:31:33;;;;;;;15.85;8.75;;;;;;;0.63;100.00;100498.41;6247963;23;20179;-63
2023/12/06 01:34:02;;;;;;;13.90;7.60;;;;;;;0.61;100.00;100503.88;6247522;23;20270;-63
2023/12/06 01:36:32;;;;;;;18.33;9.48;;;;;;;0.59;100.00;100500.50;6247316;23;20703;-65
2023/12/06 01:39:01;;;;;;;17.92;10.30;;;;;;;0.59;100.00;100499.66;6247380;23;20616;-63
2023/12/06 01:41:30;;;;;;;25.55;12.80;;;;;;;0.56;100.00;100502.63;6247176;23;20171;-64
2023/12/06 01:43:58;;;;;;;12.10;9.55;;;;;;;0.49;100.00;100501.53;6246907;23;20570;-65
2023/12/06 01:46:27;;;;;;;12.02;8.30;;;;;;;0.54;100.00;100499.25;6247266;23;20148;-65
2023/12/06 01:48:57;;;;;;;20.15;8.30;;;;;;;0.63;100.00;100501.88;6247254;23;20214;-63
2023/12/06 01:51:26;;;;;;;13.73;10.73;;;;;;;0.59;100.00;100494.31;6247008;23;20176;-64
2023/12/06 01:53:56;;;;;;;12.45;11.25;;;;;;;0.60;100.00;100501.34;6246893;23;20274;-63
2023/12/06 01:56:25;;;;;;;16.38;6.53;;;;;;;0.63;100.00;100495.72;6247208;23;20168;-65
2023/12/06 01:58:55;;;;;;;15.82;9.88;;;;;;;0.65;100.00;100499.06;6246985;23;20164;-60
2023/12/06 02:01:24;;;;;;;14.38;9.88;;;;;;;0.67;100.00;100494.44;6247102;23;20170;-65
2023/12/06 02:03:53;;;;;;;13.52;9.60;;;;;;;0.59;100.00;100502.31;6246818;23;20161;-63
2023/12/06 02:06:22;;;;;;;5.93;5.43;;;;;;;0.63;100.00;100495.72;6247150;23;20148;-65
2023/12/06 02:08:53;;;;;;;20.50;10.18;;;;;;;0.58;100.00;100495.34;6247026;23;20222;-66
2023/12/06 02:11:23;;;;;;;12.85;8.98;;;;;;;0.58;100.00;100488.16;6247105;23;20231;-64
2023/12/06 02:13:52;;;;;;;14.65;10.60;;;;;;;0.70;100.00;100489.66;6247008;23;20144;-63
2023/12/06 02:16:21;;;;;;;14.30;9.05;;;;;;;0.71;100.00;100490.50;6247010;23;20222;-67
2023/12/06 02:18:51;;;;;;;11.43;6.70;;;;;;;0.62;100.00;100491.38;6247008;23;20172;-64
2023/12/06 02:21:20;;;;;;;27.55;9.40;;;;;;;0.60;100.00;100488.03;6246894;23;20176;-63
2023/12/06 02:23:50;;;;;;;9.13;8.32;;;;;;;0.62;100.00;100484.25;6246748;23;20671;-63
2023/12/06 02:26:21;;;;;;;12.80;7.65;;;;;;;0.63;100.00;100479.75;6246761;23;20148;-66
2023/12/06 02:28:54;;;;;;;9.73;8.20;;;;;;;0.59;100.00;100486.34;6246115;23;20199;-66
2023/12/06 02:31:24;;;;;;;16.65;9.45;;;;;;;0.66;100.00;100487.44;6246611;23;20220;-64
2023/12/06 02:33:54;;;;;;;23.98;9.50;;;;;;;0.61;100.00;100484.38;6246432;23;20597;-65
2023/12/06 02:36:23;;;;;;;9.50;6.25;;;;;;;0.70;100.00;100486.16;6246737;23;20164;-66
2023/12/06 02:38:53;;;;;;;10.90;8.85;;;;;;;0.60;100.00;100474.72;6246580;23;20654;-66
2023/12/06 02:41:26;;;;;;;26.63;9.90;;;;;;;0.56;100.00;100484.00;6246859;23;20167;-65
2023/12/06 02:43:57;;;;;;;13.35;8.60;;;;;;;0.65;100.00;100480.44;6219723;23;20243;-62
2023/12/06 02:46:26;;;;;;;20.20;9.50;;;;;;;0.61;100.00;100484.38;6220043;23;20612;-65
2023/12/06 02:48:56;;;;;;;7.65;7.05;;;;;;;0.64;100.00;100490.25;6248608;23;20187;-65
2023/12/06 02:51:25;;;;;;;10.50;4.97;;;;;;;0.71;100.00;100490.50;6248519;23;20167;-66
2023/12/06 02:53:54;;;;;;;14.20;9.20;;;;;;;0.65;100.00;100478.59;6248957;23;20164;-66
2023/12/06 02:56:24;;;;;;;18.10;10.20;;;;;;;0.67;100.00;100474.00;6253529;23;20176;-66
2023/12/06 02:58:53;;;;;;;15.15;8.75;;;;;;;0.72;100.00;100476.19;6251855;23;20152;-66
2023/12/06 03:01:22;;;;;;;11.45;5.28;;;;;;;0.75;100.00;100468.75;6248759;23;20149;-67
2023/12/06 03:03:51;;;;;;;13.02;7.38;;;;;;;0.63;100.00;100479.75;6247424;23;20157;-66
2023/12/06 03:06:20;;;;;;;10.07;5.57;;;;;;;0.67;100.00;100470.47;6246734;23;20539;-65
2023/12/06 03:08:48;;;;;;;10.23;7.28;;;;;;;0.70;100.00;100472.84;6246444;23;20168;-62
2023/12/06 03:11:17;;;;;;;20.95;8.73;;;;;;;0.68;100.00;100472.97;6247111;23;20627;-66
2023/12/06 03:13:47;;;;;;;13.50;7.28;;;;;;;0.77;100.00;100457.94;6246897;23;20156;-65
2023/12/06 03:16:16;;;;;;;15.13;7.55;;;;;;;0.62;100.00;100464.75;6246901;23;20594;-65
2023/12/06 03:18:45;;;;;;;18.10;8.88;;;;;;;0.65;100.00;100459.97;6247846;23;20218;-64
2023/12/06 03:21:15;;;;;;;6.55;5.95;;;;;;;0.54;100.00;100454.00;6248068;23;20172;-65
2023/12/06 03:23:44;;;;;;;7.85;7.15;;;;;;;0.57;100.00;100461.72;6253805;23;20183;-67
2023/12/06 03:26:13;;;;;;;9.95;7.18;;;;;;;0.56;100.00;100460.88;6249930;23;20176;-64
2023/12/06 03:28:41;;;;;;;9.05;8.35;;;;;;;0.54;100.00;100469.97;6255180;23;20555;-65
2023/12/06 03:31:12;;;;;;;6.07;5.63;;;;;;;0.55;100.00;100463.66;6255430;23;20659;-65
2023/12/06 03:33:41;;;;;;;14.15;5.53;;;;;;;0.63;100.00;100461.13;6255230;23;20153;-65
2023/12/06 03:36:11;;;;;;;10.90;6.85;;;;;;;0.54;100.00;100459.31;6255378;23;20692;-65
2023/12/06 03:38:41;;;;;;;9.65;6.28;;;;;;;0.52;100.00;100466.63;6255311;23;20176;-69
2023/12/06 03:41:10;;;;;;;12.10;6.60;;;;;;;0.48;100.00;100457.28;6254653;23;20174;-67
2023/12/06 03:44:12;;;;;;;11.00;6.18;;;;;;;0.52;100.00;100459.50;6250979;23;20176;-67
2023/12/06 03:46:44;;;;;;;9.77;7.25;;;;;;;0.51;100.00;100464.94;6219465;23;20615;-66
2023/12/06 03:49:12;;;;;;;7.95;4.10;;;;;;;0.56;100.00;100454.69;6246983;23;20577;-64
2023/12/06 03:51:42;;;;;;;9.32;7.80;;;;;;;0.61;100.00;100457.75;6247169;23;20159;-65
2023/12/06 03:54:10;;;;;;;11.27;7.55;;;;;;;0.63;100.00;100455.78;6247570;23;20188;-66
2023/12/06 03:56:39;;;;;;;8.23;6.55;;;;;;;0.70;100.00;100464.84;6246478;23;20158;-63
2023/12/06 03:59:08;;;;;;;34.42;9.05;;;;;;;0.67;100.00;100462.50;6246652;23;20153;-62
2023/12/06 04:01:36;;;;;;;14.07;10.63;;;;;;;0.68;100.00;100461.47;6246464;23;20191;-65
2023/12/06 04:04:07;;;;;;;18.63;14.57;;;;;;;0.68;100.00;100466.81;6246706;23;20257;-67
2023/12/06 04:06:36;;;;;;;21.00;9.75;;;;;;;0.70;100.00;100472.84;6246844;23;20206;-66
2023/12/06 04:09:04;;;;;;;7.10;5.07;;;;;;;0.81;100.00;100476.16;6220804;23;20170;-66
2023/12/06 04:11:36;;;;;;;8.55;7.40;;;;;;;0.72;100.00;100465.53;6221643;23;20168;-65
2023/12/06 04:14:05;;;;;;;15.27;10.77;;;;;;;0.84;100.00;100465.19;6247523;23;20184;-66
2023/12/06 04:16:36;;;;;;;13.88;8.35;;;;;;;0.80;100.00;100473.63;6246030;23;20152;-65
2023/12/06 04:19:06;;;;;;;12.50;10.88;;;;;;;0.79;100.00;100483.44;6246020;23;20168;-64
2023/12/06 04:21:35;;;;;;;8.63;5.10;;;;;;;0.77;100.00;100474.78;6245964;23;20155;-66
2023/12/06 04:24:04;;;;;;;18.55;7.00;;;;;;;0.71;100.00;100474.53;6245766;23;20188;-64
2023/12/06 04:26:33;;;;;;;5.20;3.92;;;;;;;0.72;100.00;100478.88;6246028;23;20243;-66
2023/12/06 04:29:01;;;;;;;18.70;11.02;;;;;;;0.76;100.00;100469.59;6246844;23;20148;-66
2023/12/06 04:31:30;;;;;;;16.17;9.07;;;;;;;0.80;100.00;100478.94;6246616;23;20182;-66
2023/12/06 04:33:59;;;;;;;14.45;7.90;;;;;;;0.77;100.00;100473.94;6245729;23;20218;-66
2023/12/06 04:36:29;;;;;;;18.17;10.70;;;;;;;0.75;100.00;100470.56;6218761;23;20267;-66
2023/12/06 04:38:59;;;;;;;10.18;9.27;;;;;;;0.83;100.00;100467.97;6246445;23;20180;-65
2023/12/06 04:41:28;;;;;;;8.23;6.95;;;;;;;0.83;100.00;100473.31;6246429;23;20156;-66
2023/12/06 04:43:57;;;;;;;13.32;8.88;;;;;;;0.84;100.00;100469.66;6246472;23;20280;-65
2023/12/06 04:46:25;;;;;;;17.33;11.38;;;;;;;0.79;100.00;100471.94;6245910;23;20182;-66
2023/12/06 04:48:54;;;;;;;10.20;7.05;;;;;;;0.79;100.00;100478.09;6247721;23;20592;-65
2023/12/06 04:51:23;;;;;;;9.73;6.68;;;;;;;0.75;100.00;100466.09;6245510;23;20149;-66
2023/12/06 04:53:53;;;;;;;18.80;8.68;;;;;;;0.79;100.00;100471.94;6245241;23;20589;-65
2023/12/06 04:56:21;;;;;;;12.25;9.25;;;;;;;0.82;100.00;100472.47;6245696;23;20149;-65
2023/12/06 04:58:50;;;;;;;16.70;9.48;;;;;;;0.78;100.00;100467.59;6245343;23;20195;-65
2023/12/06 05:01:19;;;;;;;6.55;5.22;;;;;;;0.80;100.00;100473.63;6245373;23;20527;-66
2023/12/06 05:03:48;;;;;;;8.68;7.88;;;;;;;0.80;100.00;100473.63;6245210;23;20639;-64
2023/12/06 05:06:17;;;;;;;10.90;6.78;;;;;;;0.92;100.00;100469.75;6245597;23;20180;-65
2023/12/06 05:08:45;;;;;;;12.25;7.72;;;;;;;0.93;100.00;100474.09;6245422;23;20149;-65
2023/12/06 05:11:15;;;;;;;7.38;5.90;;;;;;;0.83;100.00;100473.31;6245447;23;20180;-64
2023/12/06 05:13:44;;;;;;;14.93;9.05;;;;;;;0.89;100.00;100472.72;6245467;23;20159;-67
2023/12/06 05:16:13;;;;;;;6.75;4.38;;;;;;;0.84;100.00;100475.84;6218511;23;20194;-67
2023/12/06 05:18:42;;;;;;;9.90;6.00;;;;;;;0.71;100.00;100472.69;6245429;23;20510;-66
2023/12/06 05:21:11;;;;;;;21.08;8.57;;;;;;;0.77;100.00;100473.94;6246391;23;20222;-65
2023/12/06 05:23:40;;;;;;;11.77;10.18;;;;;;;0.83;100.00;100473.31;6245372;23;20235;-66
2023/12/06 05:26:09;;;;;;;23.80;6.97;;;;;;;0.76;100.00;100472.25;6245866;23;20164;-67
2023/12/06 05:28:39;;;;;;;19.63;8.93;;;;;;;0.80;100.00;100473.63;6251258;23;20144;-67
2023/12/06 05:31:07;;;;;;;6.18;5.57;;;;;;;0.92;100.00;100466.25;6250003;23;20493;-66
2023/12/06 05:33:37;;;;;;;7.07;5.65;;;;;;;0.94;100.00;100467.78;6246537;23;20202;-64
2023/12/06 05:36:08;;;;;;;20.40;10.23;;;;;;;0.87;100.00;100466.72;6245913;23;20164;-64
2023/12/06 05:38:37;;;;;;;12.05;9.32;;;;;;;0.90;100.00;100469.06;6245044;23;20180;-64
2023/12/06 05:41:06;;;;;;;14.15;7.85;;;;;;;1.00;100.00;100464.50;6245168;23;20153;-65
2023/12/06 05:43:35;;;;;;;14.40;9.50;;;;;;;0.90;100.00;100469.06;6245112;23;20199;-63
2023/12/06 05:46:07;;;;;;;14.93;7.95;;;;;;;0.91;100.00;100469.91;6245095;23;20148;-66
2023/12/06 05:48:36;;;;;;;8.73;7.85;;;;;;;0.98;100.00;100471.81;6244828;23;20169;-63
2023/12/06 05:51:05;;;;;;;16.15;10.27;;;;;;;0.87;100.00;100474.72;6245143;23;20523;-66
2023/12/06 05:53:34;;;;;;;16.67;8.65;;;;;;;0.93;100.00;100474.09;6245243;23;20623;-65
2023/12/06 05:56:03;;;;;;;17.42;8.82;;;;;;;0.95;100.00;100472.13;6245027;23;20164;-66
2023/12/06 05:58:32;;;;;;;25.95;9.30;;;;;;;0.89;100.00;100478.03;6217999;23;20191;-66
2023/12/06 06:01:02;;;;;;;9.13;8.27;;;;;;;0.75;100.00;100475.88;6245148;23;20475;-66
2023/12/06 06:03:32;;;;;;;8.15;5.93;;;;;;;0.88;100.00;100476.34;6245352;23;20478;-65
2023/12/06 06:06:06;;;;;;;17.73;9.60;;;;;;;0.92;100.00;100477.72;6246314;23;20187;-66
2023/12/06 06:08:36;;;;;;;23.23;7.70;;;;;;;0.99;100.00;100478.81;6245997;23;20199;-65
2023/12/06 06:11:05;;;;;;;20.13;9.27;;;;;;;0.96;100.00;100484.47;6248223;23;20589;-65
2023/12/06 06:13:44;;;;;;;9.55;6.40;;;;;;;0.99;100.00;100484.16;6248203;23;20256;-66
2023/12/06 06:16:17;;;;;;;11.25;6.57;;;;;;;1.04;100.00;100481.88;6247817;23;20149;-65
2023/12/06 06:18:48;;;;;;;13.00;10.93;;;;;;;1.00;100.00;100487.66;6247347;23;20188;-65
2023/12/06 06:21:17;;;;;;;11.48;6.93;;;;;;;0.93;100.00;100483.91;6247651;23;20492;-65
2023/12/06 06:23:45;;;;;;;10.73;8.27;;;;;;;0.95;100.00;100477.44;6247924;23;20155;-65
2023/12/06 06:26:16;;;;;;;12.90;6.60;;;;;;;0.88;100.00;100481.69;6248340;23;20164;-65
2023/12/06 06:28:45;;;;;;;10.45;7.97;;;;;;;0.93;100.00;100484.75;6247821;23;20164;-65
2023/12/06 06:31:13;;;;;;;25.90;10.55;;;;;;;0.90;100.00;100485.06;6248325;23;20202;-66
2023/12/06 06:33:42;;;;;;;17.95;9.15;;;;;;;0.94;100.00;100488.25;6247279;23;20156;-66
2023/12/06 06:36:12;;;;;;;10.77;7.93;;;;;;;1.01;100.00;100492.00;6246762;23;20163;-66
2023/12/06 06:38:42;;;;;;;18.35;10.48;;;;;;;0.88;100.00;100487.84;6246308;23;20243;-65
2023/12/06 06:41:11;;;;;;;9.02;7.45;;;;;;;0.94;100.00;100491.75;6246955;23;20643;-65
2023/12/06 06:43:40;;;;;;;12.65;7.97;;;;;;;1.00;100.00;100490.31;6246617;23;20612;-65
2023/12/06 06:46:10;;;;;;;14.65;9.65;;;;;;;0.98;100.00;100492.28;6246822;23;20164;-66
2023/12/06 06:48:39;;;;;;;11.35;8.85;;;;;;;1.05;100.00;100493.38;6246390;23;20186;-65
2023/12/06 06:51:09;;;;;;;15.85;7.75;;;;;;;1.01;100.00;100492.00;6246436;23;20167;-65
2023/12/06 06:53:39;;;;;;;11.57;9.10;;;;;;;1.03;100.00;100496.19;6246189;23;20217;-64
2023/12/06 06:56:08;;;;;;;16.63;10.00;;;;;;;0.99;100.00;100494.81;6246468;23;20231;-65
2023/12/06 06:58:41;;;;;;;10.63;6.82;;;;;;;1.01;100.00;100500.84;6246453;23;20629;-66
2023/12/06 07:01:10;;;;;;;4.80;4.40;;;;;;;0.97;100.00;100503.94;6246200;23;20243;-64
2023/12/06 07:03:38;;;;;;;18.05;7.65;;;;;;;0.94;100.00;100507.75;6246258;23;20160;-66
2023/12/06 07:06:07;;;;;;;13.18;4.78;;;;;;;0.96;100.00;100505.78;6246403;23;20573;-66
2023/12/06 07:08:39;;;;;;;7.60;4.97;;;;;;;1.02;100.00;100521.13;6246587;23;20215;-65
2023/12/06 07:11:11;;;;;;;9.48;8.57;;;;;;;0.97;100.00;100518.09;6247357;23;20619;-67
2023/12/06 07:13:40;;;;;;;10.00;5.57;;;;;;;1.04;100.00;100519.19;6246312;23;20164;-65
2023/12/06 07:16:10;;;;;;;11.75;8.02;;;;;;;1.05;100.00;100517.34;6246455;23;20198;-65
2023/12/06 07:18:39;;;;;;;11.70;7.07;;;;;;;0.97;100.00;100531.41;6246346;23;20620;-64
2023/12/06 07:21:08;;;;;;;9.30;6.85;;;;;;;1.06;100.00;100529.69;6246318;23;20252;-64
2023/12/06 07:23:39;;;;;;;19.58;7.05;;;;;;;0.96;100.00;100527.09;6246370;23;20171;-67
2023/12/06 07:26:08;;;;;;;12.52;5.55;;;;;;;1.03;100.00;100522.81;6246161;23;20632;-66
2023/12/06 07:28:37;;;;;;;17.08;8.57;;;;;;;1.00;100.00;100524.97;6246137;23;20169;-63
2023/12/06 07:31:05;;;;;;;15.18;8.50;;;;;;;1.08;100.00;100525.03;6246465;23;20160;-65
2023/12/06 07:33:35;;;;;;;7.78;5.78;;;;;;;1.01;100.00;100530.16;6246048;23;20174;-62
2023/12/06 07:36:05;;;;;;;11.15;6.28;;;;;;;0.87;100.00;100533.31;6246274;23;20194;-67
2023/12/06 07:38:34;;;;;;;7.32;5.25;;;;;;;0.89;100.00;100539.31;6246371;23;20227;-64
2023/12/06 07:41:05;;;;;;;11.35;7.18;;;;;;;0.86;100.00;100547.63;6246306;23;20170;-65
2023/12/06 07:43:36;;;;;;;5.25;4.30;;;;;;;0.97;100.00;100542.06;6246479;23;20303;-64
2023/12/06 07:46:04;;;;;;;12.30;10.18;;;;;;;0.99;100.00;100547.25;6246489;23;20247;-64
2023/12/06 07:48:34;;;;;;;10.23;6.85;;;;;;;0.99;100.00;100548.09;6246279;23;20176;-66
2023/12/06 07:51:03;;;;;;;20.83;11.55;;;;;;;0.99;100.00;100553.44;6246116;23;20535;-64
2023/12/06 07:53:32;;;;;;;13.63;9.65;;;;;;;0.98;100.00;100548.22;6246333;23;20152;-66
2023/12/06 07:56:00;;;;;;;9.05;6.82;;;;;;;1.07;100.00;100547.34;6246594;23;20188;-64
2023/12/06 07:58:30;;;;;;;13.32;6.85;;;;;;;1.08;100.00;100547.19;6223640;23;20172;-66
2023/12/06 08:01:00;;;;;;;16.70;9.95;;;;;;;0.97;100.00;100554.56;6248935;23;20489;-66
2023/12/06 08:03:31;;;;;;;15.60;7.22;;;;;;;1.05;100.00;100547.50;6247625;23;20535;-67
2023/12/06 08:06:02;;;;;;;6.60;4.88;;;;;;;1.06;100.00;100553.69;6247665;23;20180;-66
2023/12/06 08:08:30;;;;;;;13.82;7.03;;;;;;;1.12;100.00;100545.06;6219798;23;20197;-62
2023/12/06 08:11:00;;;;;;;7.03;5.90;;;;;;;1.09;100.00;100545.38;6246370;23;20178;-63
2023/12/06 08:13:30;;;;;;;9.98;7.13;;;;;;;1.01;100.00;100556.78;6246148;23;20639;-66
2023/12/06 08:15:59;;;;;;;16.65;9.82;;;;;;;1.04;100.00;100556.47;6246226;23;20528;-67
2023/12/06 08:18:27;;;;;;;8.15;7.22;;;;;;;1.03;100.00;100565.47;6246217;23;20187;-64
2023/12/06 08:20:57;;;;;;;20.15;9.98;;;;;;;1.00;100.00;100563.09;6246739;23;20219;-65
2023/12/06 08:23:25;;;;;;;22.13;9.85;;;;;;;1.03;100.00;100565.47;6246115;23;20186;-65
2023/12/06 08:25:54;;;;;;;14.43;7.88;;;;;;;1.07;100.00;100561.50;6246074;23;20511;-65
2023/12/06 08:28:23;;;;;;;21.50;6.97;;;;;;;1.15;100.00;100566.94;6245733;23;20203;-67
2023/12/06 08:30:53;;;;;;;24.45;12.75;;;;;;;1.09;100.00;100564.03;6245634;23;20219;-65
2023/12/06 08:33:23;;;;;;;15.15;9.13;;;;;;;1.06;100.00;100565.19;6245532;23;20167;-66
2023/12/06 08:35:52;;;;;;;16.90;12.00;;;;;;;1.14;100.00;100567.94;6245895;23;20203;-67
2023/12/06 08:38:21;;;;;;;18.40;13.32;;;;;;;1.14;100.00;100561.75;6247233;23;20149;-65
2023/12/06 08:40:50;;;;;;;16.33;7.25;;;;;;;1.19;100.00;100560.31;6247613;23;20628;-64
2023/12/06 08:43:19;;;;;;;13.10;7.82;;;;;;;1.25;100.00;100564.22;6245712;23;20563;-66
2023/12/06 08:46:04;;;;;;;13.88;8.90;;;;;;;1.26;100.00;100564.03;6246075;23;20153;-66
2023/12/06 08:48:33;;;;;;;12.80;7.90;;;;;;;1.38;100.00;100559.34;6131927;23;20174;-79
2023/12/06 08:51:02;;;;;;;16.65;7.93;;;;;;;1.44;100.00;100560.56;6162690;23;20209;-78
2023/12/06 08:53:31;;;;;;;10.93;7.00;;;;;;;1.44;100.00;100558.75;6189676;23;20236;-80
2023/12/06 08:56:00;;;;;;;24.13;8.05;;;;;;;1.37;100.00;100562.16;6188441;23;20161;-80
2023/12/06 08:58:29;;;;;;;10.25;9.25;;;;;;;1.45;100.00;100565.75;6189504;23;20657;-79
2023/12/06 09:00:58;;;;;;;20.92;7.25;;;;;;;1.50;100.00;100565.31;6188783;23;20181;-79
2023/12/06 09:03:30;;;;;;;20.08;9.35;;;;;;;1.51;100.00;100567.81;6188668;23;20161;-79
2023/12/06 09:05:59;;;;;;;14.90;9.63;;;;;;;1.58;100.00;100570.72;6188840;23;20150;-79
2023/12/06 09:08:31;;;;;;;9.63;8.68;;;;;;;1.73;100.00;100575.38;6188718;23;20610;-78
2023/12/06 09:11:00;;;;;;;14.45;7.43;;;;;;;1.69;100.00;100578.50;6189005;23;20398;-78
2023/12/06 09:13:29;;;;;;;9.75;7.90;;;;;;;1.66;100.00;100579.63;6188858;23;20166;-79
2023/12/06 09:15:57;;;;;;;13.38;8.93;;;;;;;1.70;100.00;100577.47;6188932;23;20162;-79
2023/12/06 09:18:28;;;;;;;19.35;10.00;;;;;;;1.65;100.00;100574.44;6188227;23;20223;-79
2023/12/06 09:20:57;;;;;;;16.30;10.93;;;;;;;1.70;100.00;100585.47;6189217;23;20169;-79
2023/12/06 09:23:27;;;;;;;13.00;8.93;;;;;;;1.68;100.00;100592.81;6190038;23;20166;-80
2023/12/06 09:26:00;;;;;;;13.00;9.30;;;;;;;1.72;100.00;100588.84;6189522;23;20184;-80
2023/12/06 09:28:29;;;;;;;18.38;11.07;;;;;;;1.74;100.00;100586.88;6191360;23;20208;-79
2023/12/06 09:31:00;;;;;;;11.77;6.95;;;;;;;1.66;100.00;100590.28;6165080;23;20153;-79
2023/12/06 09:33:31;;;;;;;16.00;11.23;;;;;;;1.68;100.00;100596.31;6188098;23;20173;-80
2023/12/06 09:36:00;;;;;;;12.73;6.13;;;;;;;1.70;100.00;100591.66;6163567;23;20244;-79
2023/12/06 09:38:34;;;;;;;12.88;8.68;;;;;;;1.74;100.00;100598.34;6188790;23;20161;-79
2023/12/06 09:41:05;;;;;;;5.88;4.85;;;;;;;1.66;100.00;100589.44;6189710;23;20193;-79
2023/12/06 09:43:36;;;;;;;10.95;9.93;;;;;;;1.63;100.00;100595.09;6192577;23;20499;-78
2023/12/06 09:46:05;;;;;;;8.93;8.07;;;;;;;1.57;100.00;100593.03;6210809;23;20164;-79
2023/12/06 09:48:36;;;;;;;13.10;8.73;;;;;;;1.49;100.00;100596.47;6214304;23;20138;-80
2023/12/06 09:51:23;;;;;;;15.00;9.73;;;;;;;1.53;100.00;100589.84;6212626;23;20320;-80
2023/12/06 09:53:53;;;;;;;14.55;5.35;;;;;;;1.59;100.00;100593.72;6213312;23;20152;-78
2023/12/06 09:56:23;;;;;;;11.25;8.90;;;;;;;1.68;100.00;100595.47;6196441;23;20185;-78
2023/12/06 09:58:55;;;;;;;10.75;6.82;;;;;;;1.55;100.00;100589.69;6193001;23;20150;-80
2023/12/06 10:01:24;;;;;;;8.15;7.28;;;;;;;1.65;100.00;100593.09;6166653;23;20197;-78
2023/12/06 10:03:55;;;;;;;14.45;7.85;;;;;;;1.66;100.00;100594.78;6191984;23;20250;-78
2023/12/06 10:06:27;;;;;;;10.40;6.47;;;;;;;1.66;100.00;100594.78;6190362;23;20154;-79
2023/12/06 10:08:58;;;;;;;20.17;9.85;;;;;;;1.71;100.00;100598.69;6162964;23;20185;-80
2023/12/06 10:11:29;;;;;;;13.48;7.88;;;;;;;1.66;100.00;100589.44;6191431;23;20229;-79
2023/12/06 10:13:58;;;;;;;10.30;6.00;;;;;;;1.89;100.00;100598.66;6191307;23;20190;-81
2023/12/06 10:32:36;;;;;;;15.70;8.40;;;;;;;1.68;100.00;100587.47;6009417;23;20196;-80
2023/12/06 10:35:06;;;;;;;16.23;9.65;;;;;;;1.75;100.00;100588.53;6090973;23;20196;-79
2023/12/06 10:37:36;;;;;;;14.80;6.57;;;;;;;1.80;100.00;100590.75;6104307;23;20176;-80
2023/12/06 10:40:09;;;;;;;9.40;7.85;;;;;;;2.02;100.00;100591.13;6129539;23;20257;-81
2023/12/06 10:42:44;;;;;;;7.70;6.18;;;;;;;2.04;100.00;100588.28;6128635;23;20187;-79
2023/12/06 10:45:15;;;;;;;15.10;7.00;;;;;;;2.06;100.00;100587.16;6129758;23;20150;-79
2023/12/06 10:47:50;;;;;;;7.43;5.57;;;;;;;2.00;100.00;100586.91;6126807;23;20178;-80
2023/12/06 10:50:20;;;;;;;12.85;7.55;;;;;;;1.85;100.00;100591.97;6129216;23;20524;-79
2023/12/06 10:52:49;;;;;;;22.25;7.00;;;;;;;1.90;100.00;100581.66;6139949;23;20190;-79
2023/12/06 10:55:19;;;;;;;10.38;7.55;;;;;;;1.96;100.00;100586.41;6145185;23;20669;-79
2023/12/06 10:57:51;;;;;;;9.95;6.70;;;;;;;1.80;100.00;100585.41;6139579;23;20190;-78
2023/12/06 11:00:26;;;;;;;15.55;8.00;;;;;;;1.78;100.00;100588.25;6161205;23;20219;-80
2023/12/06 11:02:57;;;;;;;9.27;7.68;;;;;;;1.82;100.00;100581.59;6189984;23;20210;-78
2023/12/06 11:05:29;;;;;;;17.83;8.02;;;;;;;1.78;100.00;100582.91;6189680;23;20247;-78
2023/12/06 11:08:27;;;;;;;10.68;6.25;;;;;;;1.82;100.00;100581.59;6188096;23;20650;-78
2023/12/06 11:11:13;;;;;;;16.98;6.35;;;;;;;1.77;100.00;100575.03;6188728;23;20188;-80
2023/12/06 11:13:52;;;;;;;16.08;7.50;;;;;;;2.03;100.00;100567.94;6191751;23;20157;-80
2023/12/06 11:16:39;;;;;;;11.43;9.82;;;;;;;1.98;100.00;100571.06;6190635;23;20156;-79
2023/12/06 11:19:11;;;;;;;9.05;7.40;;;;;;;1.91;100.00;100578.00;6196521;23;20177;-79
2023/12/06 11:21:40;;;;;;;14.25;8.07;;;;;;;2.03;100.00;100571.41;6188507;23;20197;-80
2023/12/06 11:24:11;;;;;;;10.35;7.47;;;;;;;2.01;100.00;100581.44;6204357;23;20137;-80
2023/12/06 11:26:41;;;;;;;30.25;7.75;;;;;;;2.05;100.00;100577.47;6211661;23;20149;-79
2023/12/06 11:50:33;;;;;;;14.32;7.43;;;;;;;2.05;100.00;100582.78;6128426;23;20234;-80
2023/12/06 11:54:24;;;;;;;7.15;6.40;;;;;;;2.13;100.00;100582.84;6084334;23;20229;-78
2023/12/06 11:56:52;;;;;;;9.73;5.68;;;;;;;2.10;100.00;100583.16;6105237;23;20659;-80
2023/12/06 11:59:23;;;;;;;11.82;6.15;;;;;;;2.21;100.00;100578.56;6139324;23;20222;-79
2023/12/06 12:01:56;;;;;;;15.48;6.00;;;;;;;2.14;100.00;100573.00;6124061;23;20322;-79
2023/12/06 12:04:26;;;;;;;10.15;6.18;;;;;;;2.11;100.00;100581.34;6125739;23;20175;-79
2023/12/06 12:07:01;;;;;;;8.23;6.25;;;;;;;2.07;100.00;100578.16;6155816;23;20178;-80
2023/12/06 12:09:32;;;;;;;18.10;8.88;;;;;;;2.12;100.00;100575.84;6206266;23;20240;-79